createdAt,value
2022-10-19T00:01:22.756Z,100543.44
2022-10-19T00:03:54.242Z,100526.62
2022-10-19T00:06:28.518Z,100523.00
2022-10-19T00:08:59.332Z,100523.88
2022-10-19T00:11:28.733Z,100517.09
2022-10-19T00:13:58.252Z,100515.31
2022-10-19T00:16:30.450Z,100512.50
2022-10-19T00:19:00.648Z,100507.87
2022-10-19T00:21:29.353Z,100503.31
2022-10-19T00:23:57.688Z,100498.16
2022-10-19T00:26:26.222Z,100494.72
2022-10-19T00:28:55.873Z,100501.84
2022-10-19T00:31:25.395Z,100506.00
2022-10-19T00:33:56.599Z,100494.06
2022-10-19T00:36:27.767Z,100487.38
2022-10-19T00:38:56.469Z,100483.56
2022-10-19T00:41:26.483Z,100483.41
2022-10-19T00:44:12.034Z,100464.44
2022-10-19T00:46:43.717Z,100467.25
2022-10-19T00:49:25.374Z,100462.41
2022-10-19T00:52:01.647Z,100457.78
2022-10-19T00:54:34.900Z,100457.28
2022-10-19T00:57:04.238Z,100458.25
2022-10-19T00:59:33.298Z,100462.19
2022-10-19T01:02:03.559Z,100465.34
2022-10-19T01:04:35.064Z,100457.97
2022-10-19T01:07:05.404Z,100460.97
2022-10-19T01:09:34.970Z,100449.84
2022-10-19T01:12:27.914Z,100451.66
2022-10-19T01:15:31.305Z,100437.41
2022-10-19T01:18:34.886Z,100444.59
2022-10-19T01:21:29.932Z,100435.66
2022-10-19T01:24:01.112Z,100432.66
2022-10-19T01:27:00.521Z,100424.97
2022-10-19T01:30:14.034Z,100423.63
2022-10-19T01:32:57.857Z,100416.59
2022-10-19T01:35:53.439Z,100416.91
2022-10-19T01:39:03.295Z,100423.63
2022-10-19T01:41:54.364Z,100417.72
2022-10-19T01:44:50.583Z,100432.47
2022-10-19T01:47:41.512Z,100416.91
2022-10-19T01:50:24.729Z,100416.87
2022-10-19T01:52:55.555Z,100430.56
2022-10-19T01:55:26.424Z,100427.91
2022-10-19T01:58:00.626Z,100427.25
2022-10-19T02:00:31.322Z,100423.19
2022-10-19T02:03:01.137Z,100415.25
2022-10-19T02:05:33.104Z,100421.59
2022-10-19T02:08:10.863Z,100424.47
2022-10-19T02:10:42.328Z,100424.97
2022-10-19T02:13:13.916Z,100419.06
2022-10-19T02:15:46.605Z,100433.53
2022-10-19T02:18:21.308Z,100427.84
2022-10-19T02:20:49.853Z,100426.50
2022-10-19T02:23:21.495Z,100431.91
2022-10-19T02:25:49.957Z,100420.09
2022-10-19T02:28:18.665Z,100429.91
2022-10-19T02:30:47.600Z,100432.25
2022-10-19T02:33:16.392Z,100428.03
2022-10-19T02:35:44.974Z,100425.66
2022-10-19T02:38:17.021Z,100422.94
2022-10-19T02:40:52.256Z,100423.06
2022-10-19T02:43:23.195Z,100420.97
2022-10-19T02:46:00.384Z,100405.69
2022-10-19T02:48:31.936Z,100414.84
2022-10-19T02:51:00.522Z,100405.88
2022-10-19T02:53:29.340Z,100408.28
2022-10-19T02:55:57.377Z,100412.28
2022-10-19T02:58:26.067Z,100419.94
2022-10-19T03:00:54.971Z,100411.97
2022-10-19T03:03:22.990Z,100424.03
2022-10-19T03:05:52.273Z,100405.59
2022-10-19T03:08:20.533Z,100410.47
2022-10-19T03:10:48.773Z,100406.94
2022-10-19T03:13:19.882Z,100407.31
2022-10-19T03:15:48.190Z,100408.12
2022-10-19T03:18:16.626Z,100406.25
2022-10-19T03:20:45.053Z,100412.84
2022-10-19T03:23:13.241Z,100403.75
2022-10-19T03:25:41.622Z,100409.72
2022-10-19T03:28:09.560Z,100411.50
2022-10-19T03:30:38.119Z,100415.09
2022-10-19T03:33:06.427Z,100416.37
2022-10-19T03:35:34.503Z,100419.81
2022-10-19T03:38:02.715Z,100413.47
2022-10-19T03:40:31.382Z,100406.28
2022-10-19T03:42:59.325Z,100404.16
2022-10-19T03:45:27.736Z,100409.25
2022-10-19T03:47:56.137Z,100406.69
2022-10-19T03:50:24.970Z,100409.34
2022-10-19T03:52:55.004Z,100416.63
2022-10-19T03:55:23.379Z,100411.31
2022-10-19T03:57:51.768Z,100424.91
2022-10-19T04:00:20.355Z,100421.94
2022-10-19T04:02:48.678Z,100414.16
2022-10-19T04:05:16.793Z,100422.53
2022-10-19T04:07:45.104Z,100416.81
2022-10-19T04:10:17.498Z,100422.88
2022-10-19T04:12:46.406Z,100424.50
2022-10-19T04:15:17.021Z,100412.56
2022-10-19T04:17:48.543Z,100421.19
2022-10-19T04:20:21.332Z,100408.69
2022-10-19T04:22:49.444Z,100393.78
2022-10-19T04:25:17.889Z,100402.28
2022-10-19T04:27:46.263Z,100412.66
2022-10-19T04:30:14.420Z,100418.94
2022-10-19T04:32:42.759Z,100420.41
2022-10-19T04:35:10.845Z,100420.50
2022-10-19T04:37:38.995Z,100419.03
2022-10-19T04:40:12.829Z,100412.69
2022-10-19T04:42:43.632Z,100412.28
2022-10-19T04:45:11.939Z,100405.31
2022-10-19T04:47:39.956Z,100412.28
2022-10-19T04:50:09.892Z,100410.37
2022-10-19T04:52:39.419Z,100407.31
2022-10-19T04:55:07.798Z,100406.56
2022-10-19T04:57:36.632Z,100412.53
2022-10-19T05:00:06.146Z,100420.75
2022-10-19T05:02:34.173Z,100414.81
2022-10-19T05:05:02.537Z,100418.62
2022-10-19T05:07:31.123Z,100402.56
2022-10-19T05:10:00.775Z,100411.66
2022-10-19T05:12:29.073Z,100420.75
2022-10-19T05:14:57.397Z,100423.81
2022-10-19T05:17:25.530Z,100427.53
2022-10-19T05:19:54.224Z,100429.84
2022-10-19T05:22:22.657Z,100436.72
2022-10-19T05:24:54.492Z,100443.03
2022-10-19T05:27:25.918Z,100444.16
2022-10-19T05:29:57.015Z,100447.31
2022-10-19T05:32:27.025Z,100462.28
2022-10-19T05:34:55.257Z,100475.78
2022-10-19T05:37:23.300Z,100465.62
2022-10-19T05:39:54.818Z,100466.44
2022-10-19T05:42:24.867Z,100466.16
2022-10-19T05:44:53.188Z,100460.41
2022-10-19T05:47:21.353Z,100466.03
2022-10-19T05:49:50.043Z,100470.00
2022-10-19T05:52:18.520Z,100473.53
2022-10-19T05:54:47.261Z,100479.31
2022-10-19T05:57:15.443Z,100484.81
2022-10-19T05:59:52.579Z,100486.03
2022-10-19T06:02:20.987Z,100478.16
2022-10-19T06:04:49.356Z,100482.38
2022-10-19T06:07:17.584Z,100482.19
2022-10-19T06:09:46.611Z,100486.81
2022-10-19T06:12:16.316Z,100486.91
2022-10-19T06:17:18.461Z,100498.28
2022-10-19T06:19:47.508Z,100494.72
2022-10-19T06:22:15.532Z,100500.41
2022-10-19T06:24:44.139Z,100499.81
2022-10-19T06:27:12.382Z,100486.44
2022-10-19T06:29:41.019Z,100494.84
2022-10-19T06:32:09.424Z,100501.59
2022-10-19T06:34:37.600Z,100494.09
2022-10-19T06:37:05.754Z,100493.94
2022-10-19T06:39:34.678Z,100484.78
2022-10-19T06:42:02.891Z,100486.31
2022-10-19T06:44:30.979Z,100491.78
2022-10-19T06:46:59.452Z,100491.84
2022-10-19T06:49:27.948Z,100496.75
2022-10-19T06:51:56.210Z,100506.31
2022-10-19T06:54:25.635Z,100497.81
2022-10-19T06:56:54.104Z,100506.66
2022-10-19T06:59:22.620Z,100511.66
2022-10-19T07:01:50.897Z,100517.91
2022-10-19T07:04:19.051Z,100506.94
2022-10-19T07:06:47.388Z,100522.38
2022-10-19T07:09:16.317Z,100518.59
2022-10-19T07:11:46.064Z,100527.34
2022-10-19T07:14:14.869Z,100530.12
2022-10-19T07:16:43.223Z,100537.69
2022-10-19T07:19:11.911Z,100539.00
2022-10-19T07:21:41.789Z,100543.94
2022-10-19T07:24:10.416Z,100544.63
2022-10-19T07:26:38.589Z,100547.72
2022-10-19T07:29:06.680Z,100552.31
2022-10-19T07:31:35.643Z,100544.44
2022-10-19T07:34:05.002Z,100539.69
2022-10-19T07:36:35.973Z,100544.44
2022-10-19T07:39:06.521Z,100558.38
2022-10-19T07:41:34.949Z,100543.75
2022-10-19T07:44:04.003Z,100547.00
2022-10-19T07:46:34.019Z,100552.53
2022-10-19T07:49:02.996Z,100546.75
2022-10-19T07:51:31.118Z,100544.03
2022-10-19T07:53:59.794Z,100541.84
2022-10-19T07:56:28.593Z,100540.03
2022-10-19T07:58:58.678Z,100543.25
2022-10-19T08:01:32.605Z,100534.41
2022-10-19T08:06:50.191Z,100532.78
2022-10-19T08:09:47.272Z,100543.25
2022-10-19T08:12:07.273Z,100546.66
2022-10-19T08:14:35.716Z,100551.94
2022-10-19T08:17:03.759Z,100552.72
2022-10-19T08:19:34.044Z,100556.47
2022-10-19T08:22:02.465Z,100556.56
2022-10-19T08:24:30.536Z,100551.12
2022-10-19T08:26:59.168Z,100549.47
2022-10-19T08:29:30.689Z,100555.28
2022-10-19T08:32:00.307Z,100548.97
2022-10-19T08:34:28.676Z,100550.16
2022-10-19T08:36:56.718Z,100548.13
2022-10-19T08:39:25.126Z,100554.28
2022-10-19T08:42:03.651Z,100548.69
2022-10-19T08:44:34.943Z,100557.91
2022-10-19T08:47:27.556Z,100553.31
2022-10-19T08:49:58.799Z,100560.38
2022-10-19T08:52:34.099Z,100564.34
2022-10-19T08:55:13.995Z,100560.22
2022-10-19T08:58:10.339Z,100565.72
2022-10-19T09:01:07.507Z,100549.03
2022-10-19T09:04:03.209Z,100555.16
2022-10-19T09:06:45.048Z,100551.56
2022-10-19T09:09:15.023Z,100548.03
2022-10-19T09:11:47.503Z,100547.44
2022-10-19T09:14:22.282Z,100553.38
2022-10-19T09:16:50.353Z,100552.34
2022-10-19T09:19:25.940Z,100550.53
2022-10-19T09:22:03.902Z,100558.91
2022-10-19T09:24:37.458Z,100547.34
2022-10-19T09:27:10.899Z,100553.06
2022-10-19T09:30:03.848Z,100549.09
2022-10-19T09:32:36.294Z,100556.59
2022-10-19T09:35:13.917Z,100551.97
2022-10-19T09:37:46.902Z,100563.53
2022-10-19T09:40:35.156Z,100561.91
2022-10-19T09:43:19.687Z,100558.69
2022-10-19T09:46:19.834Z,100558.69
2022-10-19T09:48:53.617Z,100560.13
2022-10-19T09:51:23.757Z,100562.56
2022-10-19T09:53:54.660Z,100562.78
2022-10-19T09:56:27.884Z,100562.87
2022-10-19T09:58:58.698Z,100560.69
2022-10-19T10:01:41.733Z,100559.72
2022-10-19T10:04:16.819Z,100553.41
2022-10-19T10:06:49.961Z,100549.25
2022-10-19T10:09:22.654Z,100551.91
2022-10-19T10:11:52.007Z,100548.59
2022-10-19T10:14:25.189Z,100553.00
2022-10-19T10:17:17.647Z,100542.47
2022-10-19T10:20:05.916Z,100541.91
2022-10-19T10:22:37.227Z,100537.22
2022-10-19T10:25:17.011Z,100530.31
2022-10-19T10:27:59.390Z,100527.28
2022-10-19T10:30:35.114Z,100530.91
2022-10-19T10:33:13.274Z,100520.47
2022-10-19T10:35:57.931Z,100522.00
2022-10-19T10:38:30.862Z,100521.75
2022-10-19T10:41:29.125Z,100526.25
2022-10-19T10:44:04.939Z,100510.50
2022-10-19T10:46:43.723Z,100507.06
2022-10-19T10:49:24.471Z,100503.19
2022-10-19T10:51:57.267Z,100495.59
2022-10-19T10:54:26.531Z,100506.19
2022-10-19T10:57:18.762Z,100493.59
2022-10-19T11:00:14.118Z,100485.69
2022-10-19T11:02:52.368Z,100485.00
2022-10-19T11:05:54.459Z,100487.16
2022-10-19T11:08:35.448Z,100488.53
2022-10-19T11:11:46.670Z,100489.97
2022-10-19T11:14:41.569Z,100494.63
2022-10-19T11:17:21.070Z,100499.06
2022-10-19T11:19:52.232Z,100502.53
2022-10-19T11:22:59.354Z,100486.97
2022-10-19T11:25:46.207Z,100491.78
2022-10-19T11:28:23.335Z,100480.22
2022-10-19T11:31:25.083Z,100493.22
2022-10-19T11:34:02.581Z,100492.75
2022-10-19T11:37:11.923Z,100477.63
2022-10-19T11:39:52.136Z,100493.91
2022-10-19T11:42:38.625Z,100482.78
2022-10-19T11:45:34.571Z,100468.91
2022-10-19T11:48:12.155Z,100469.56
2022-10-19T11:50:58.883Z,100470.81
2022-10-19T11:54:08.965Z,100463.69
2022-10-19T11:57:03.600Z,100469.81
2022-10-19T11:59:36.447Z,100464.34
2022-10-19T12:02:32.741Z,100468.72
2022-10-19T12:05:28.095Z,100468.63
2022-10-19T12:08:21.239Z,100453.22
2022-10-19T12:11:27.796Z,100448.03
2022-10-19T12:14:03.778Z,100449.94
2022-10-19T12:16:42.951Z,100438.34
2022-10-19T12:19:20.454Z,100436.28
2022-10-19T12:21:50.820Z,100436.25
2022-10-19T12:24:25.243Z,100444.59
2022-10-19T12:26:54.478Z,100435.00
2022-10-19T12:29:36.513Z,100430.88
2022-10-19T12:32:07.420Z,100423.75
2022-10-19T12:34:54.565Z,100423.50
2022-10-19T12:37:46.187Z,100419.72
2022-10-19T12:40:26.552Z,100428.91
2022-10-19T12:43:08.967Z,100410.50
2022-10-19T12:45:44.024Z,100413.78
2022-10-19T12:48:19.289Z,100410.75
2022-10-19T12:50:52.471Z,100409.03
2022-10-19T12:53:45.409Z,100407.28
2022-10-19T12:56:19.595Z,100412.53
2022-10-19T12:59:01.534Z,100407.50
2022-10-19T13:01:44.341Z,100406.19
2022-10-19T13:04:16.266Z,100395.00
2022-10-19T13:06:49.486Z,100407.66
2022-10-19T13:09:27.809Z,100405.41
2022-10-19T13:12:25.653Z,100409.22
2022-10-19T13:14:54.653Z,100407.13
2022-10-19T13:17:37.726Z,100402.22
2022-10-19T13:20:14.820Z,100404.50
2022-10-19T13:23:03.623Z,100403.22
2022-10-19T13:25:39.770Z,100401.97
2022-10-19T13:28:07.908Z,100410.06
2022-10-19T13:30:42.082Z,100421.78
2022-10-19T13:33:44.999Z,100408.50
2022-10-19T13:36:14.056Z,100406.97
2022-10-19T13:38:43.778Z,100417.13
2022-10-19T13:41:27.783Z,100420.50
2022-10-19T13:44:17.010Z,100415.84
2022-10-19T13:47:00.206Z,100405.97
2022-10-19T13:49:38.055Z,100406.50
2022-10-19T13:52:21.539Z,100407.84
2022-10-19T13:55:14.841Z,100405.41
2022-10-19T13:58:00.441Z,100399.50
2022-10-19T14:00:56.218Z,100402.03
2022-10-19T14:03:50.819Z,100399.97
2022-10-19T14:06:43.514Z,100414.25
2022-10-19T14:09:43.212Z,100405.78
2022-10-19T14:12:24.307Z,100417.47
2022-10-19T14:14:56.110Z,100409.28
2022-10-19T14:17:28.646Z,100416.37
2022-10-19T14:20:00.113Z,100404.09
2022-10-19T14:22:34.057Z,100401.28
2022-10-19T14:25:02.552Z,100392.59
2022-10-19T14:27:31.483Z,100402.63
2022-10-19T14:30:04.501Z,100407.31
2022-10-19T14:32:34.470Z,100416.25
2022-10-19T14:35:22.436Z,100409.59
2022-10-19T14:37:51.200Z,100405.72
2022-10-19T14:40:37.688Z,100412.16
2022-10-19T14:43:27.344Z,100415.12
2022-10-19T14:46:04.911Z,100405.09
2022-10-19T14:48:35.109Z,100424.75
2022-10-19T14:51:10.178Z,100427.31
2022-10-19T14:53:54.877Z,100420.88
2022-10-19T14:56:33.020Z,100419.06
2022-10-19T14:59:37.167Z,100420.75
2022-10-19T15:02:32.854Z,100424.19
2022-10-19T15:05:04.581Z,100423.78
2022-10-19T15:07:40.171Z,100423.91
2022-10-19T15:10:19.412Z,100413.91
2022-10-19T15:12:50.437Z,100407.03
2022-10-19T15:15:18.866Z,100421.84
2022-10-19T15:17:53.783Z,100421.84
2022-10-19T15:20:43.756Z,100421.50
2022-10-19T15:23:30.552Z,100428.44
2022-10-19T15:26:00.793Z,100433.03
2022-10-19T15:28:37.462Z,100423.00
2022-10-19T15:31:25.514Z,100431.22
2022-10-19T15:33:56.607Z,100418.09
2022-10-19T15:36:26.697Z,100419.06
2022-10-19T15:39:06.198Z,100423.84
2022-10-19T15:41:46.477Z,100436.78
2022-10-19T15:44:40.940Z,100432.66
2022-10-19T15:47:15.949Z,100439.16
2022-10-19T15:49:45.864Z,100451.25
2022-10-19T15:52:19.334Z,100461.19
2022-10-19T15:54:49.052Z,100464.78
2022-10-19T15:57:33.374Z,100446.19
2022-10-19T16:00:12.883Z,100441.88
2022-10-19T16:02:41.613Z,100438.09
2022-10-19T16:05:10.169Z,100433.00
2022-10-19T16:07:40.378Z,100438.38
2022-10-19T16:10:17.926Z,100448.84
2022-10-19T16:12:46.288Z,100455.34
2022-10-19T16:15:23.177Z,100450.00
2022-10-19T16:17:55.237Z,100448.34
2022-10-19T16:20:25.962Z,100449.47
2022-10-19T16:22:54.672Z,100453.38
2022-10-19T16:25:22.940Z,100459.91
2022-10-19T16:27:51.623Z,100464.63
2022-10-19T16:30:20.139Z,100471.41
2022-10-19T16:32:49.611Z,100466.56
2022-10-19T16:35:18.173Z,100462.78
2022-10-19T16:37:46.364Z,100474.59
2022-10-19T16:40:15.822Z,100463.75
2022-10-19T16:42:44.444Z,100475.66
2022-10-19T16:45:12.987Z,100493.81
2022-10-19T16:47:41.333Z,100499.66
2022-10-19T16:50:13.652Z,100493.28
2022-10-19T16:52:42.024Z,100490.59
2022-10-19T16:55:10.605Z,100486.22
2022-10-19T16:57:39.071Z,100506.62
2022-10-19T17:00:09.672Z,100503.91
2022-10-19T17:02:41.850Z,100509.41
2022-10-19T17:05:12.464Z,100509.41
2022-10-19T17:07:41.273Z,100517.69
2022-10-19T17:10:10.035Z,100512.06
2022-10-19T17:12:42.920Z,100524.28
2022-10-19T17:18:03.259Z,100518.63
2022-10-19T17:20:33.476Z,100529.56
2022-10-19T17:23:01.606Z,100521.19
2022-10-19T17:25:30.182Z,100523.06
2022-10-19T17:27:58.772Z,100524.84
2022-10-19T17:30:29.411Z,100517.88
2022-10-19T17:32:57.996Z,100522.44
2022-10-19T17:35:26.716Z,100513.25
2022-10-19T17:37:55.189Z,100522.59
2022-10-19T17:40:23.787Z,100531.31
2022-10-19T17:42:52.400Z,100546.28
2022-10-19T17:45:20.779Z,100546.84
2022-10-19T17:47:49.289Z,100556.19
2022-10-19T17:50:18.228Z,100563.13
2022-10-19T17:52:46.857Z,100569.59
2022-10-19T17:55:15.362Z,100571.84
2022-10-19T17:57:44.248Z,100569.22
2022-10-19T18:00:13.498Z,100564.12
2022-10-19T18:02:44.906Z,100563.75
2022-10-19T18:05:13.126Z,100554.44
2022-10-19T18:07:42.779Z,100545.37
2022-10-19T18:10:11.620Z,100552.94
2022-10-19T18:12:40.532Z,100545.84
2022-10-19T18:15:09.206Z,100549.94
2022-10-19T18:17:39.892Z,100549.13
2022-10-19T18:20:09.611Z,100555.19
2022-10-19T18:22:38.376Z,100553.53
2022-10-19T18:25:08.757Z,100561.50
2022-10-19T18:27:37.435Z,100558.47
2022-10-19T18:30:10.218Z,100568.41
2022-10-19T18:32:38.704Z,100568.66
2022-10-19T18:35:09.026Z,100585.56
2022-10-19T18:37:37.609Z,100587.62
2022-10-19T18:40:08.036Z,100601.19
2022-10-19T18:42:36.654Z,100606.16
2022-10-19T18:45:05.691Z,100600.81
2022-10-19T18:47:34.095Z,100603.56
2022-10-19T18:50:03.534Z,100596.13
2022-10-19T18:52:36.530Z,100587.62
2022-10-19T18:55:08.236Z,100595.97
2022-10-19T18:57:38.167Z,100603.81
2022-10-19T19:00:08.000Z,100605.59
2022-10-19T19:02:46.476Z,100608.22
2022-10-19T19:05:15.955Z,100620.94
2022-10-19T19:07:44.220Z,100622.34
2022-10-19T19:10:14.503Z,100612.00
2022-10-19T19:12:45.005Z,100602.34
2022-10-19T19:15:13.153Z,100612.66
2022-10-19T19:17:41.518Z,100604.53
2022-10-19T19:20:12.545Z,100601.50
2022-10-19T19:22:41.639Z,100610.78
2022-10-19T19:25:11.570Z,100616.75
2022-10-19T19:27:39.919Z,100603.22
2022-10-19T19:30:10.786Z,100608.53
2022-10-19T19:32:39.148Z,100618.12
2022-10-19T19:35:07.714Z,100623.53
2022-10-19T19:37:36.620Z,100622.75
2022-10-19T19:40:07.787Z,100624.78
2022-10-19T19:42:36.871Z,100626.94
2022-10-19T19:45:05.646Z,100635.16
2022-10-19T19:47:34.750Z,100640.50
2022-10-19T19:50:03.893Z,100630.22
2022-10-19T19:52:34.884Z,100631.69
2022-10-19T19:55:07.107Z,100627.09
2022-10-19T19:57:36.099Z,100635.81
2022-10-19T20:00:11.126Z,100633.47
2022-10-19T20:02:39.699Z,100635.97
2022-10-19T20:05:08.632Z,100641.63
2022-10-19T20:07:37.167Z,100639.69
2022-10-19T20:10:07.852Z,100651.38
2022-10-19T20:12:38.847Z,100648.62
2022-10-19T20:15:07.371Z,100641.06
2022-10-19T20:17:36.394Z,100654.53
2022-10-19T20:20:13.339Z,100655.91
2022-10-19T20:22:46.544Z,100657.19
2022-10-19T20:25:15.295Z,100664.44
2022-10-19T20:27:43.932Z,100666.47
2022-10-19T20:30:18.552Z,100674.28
2022-10-19T20:32:48.075Z,100672.75
2022-10-19T20:35:17.209Z,100684.31
2022-10-19T20:37:49.899Z,100680.69
2022-10-19T20:40:20.269Z,100688.97
2022-10-19T20:42:48.617Z,100690.28
2022-10-19T20:45:16.641Z,100686.28
2022-10-19T20:47:45.568Z,100697.03
2022-10-19T20:50:21.840Z,100698.94
2022-10-19T20:52:50.473Z,100684.66
2022-10-19T20:55:20.519Z,100690.84
2022-10-19T20:57:48.855Z,100695.69
2022-10-19T21:00:18.614Z,100694.84
2022-10-19T21:02:47.166Z,100692.16
2022-10-19T21:05:15.357Z,100690.12
2022-10-19T21:07:43.725Z,100698.63
2022-10-19T21:10:12.045Z,100699.59
2022-10-19T21:12:40.056Z,100695.94
2022-10-19T21:15:08.782Z,100690.50
2022-10-19T21:17:41.481Z,100686.22
2022-10-19T21:20:10.435Z,100692.16
2022-10-19T21:22:40.191Z,100705.28
2022-10-19T21:25:09.477Z,100701.25
2022-10-19T21:27:38.197Z,100706.81
2022-10-19T21:30:10.444Z,100701.25
2022-10-19T21:32:38.945Z,100706.22
2022-10-19T21:35:07.342Z,100697.63
2022-10-19T21:37:35.615Z,100711.78
2022-10-19T21:40:06.593Z,100704.00
2022-10-19T21:42:34.601Z,100708.94
2022-10-19T21:45:18.375Z,100711.78
2022-10-19T21:47:51.826Z,100713.31
2022-10-19T21:50:22.007Z,100717.59
2022-10-19T21:52:50.003Z,100709.09
2022-10-19T21:55:18.431Z,100717.81
2022-10-19T21:57:47.010Z,100719.13
2022-10-19T22:00:17.062Z,100716.53
2022-10-19T22:02:44.931Z,100716.41
2022-10-19T22:05:13.408Z,100713.78
2022-10-19T22:07:41.672Z,100715.78
2022-10-19T22:10:10.490Z,100720.41
2022-10-19T22:12:39.325Z,100717.91
2022-10-19T22:15:07.769Z,100717.66
2022-10-19T22:17:35.816Z,100716.03
2022-10-19T22:20:06.610Z,100722.09
2022-10-19T22:22:35.036Z,100728.69
2022-10-19T22:25:04.148Z,100719.94
2022-10-19T22:27:32.356Z,100719.81
2022-10-19T22:30:01.991Z,100718.31
2022-10-19T22:32:30.430Z,100718.66
2022-10-19T22:34:58.826Z,100716.41
2022-10-19T22:37:26.832Z,100721.72
2022-10-19T22:39:56.199Z,100720.41
2022-10-19T22:42:24.411Z,100719.94
2022-10-19T22:44:52.487Z,100719.00
2022-10-19T22:47:20.816Z,100725.75
2022-10-19T22:49:49.974Z,100724.31
2022-10-19T22:52:17.987Z,100708.63
2022-10-19T22:54:46.350Z,100712.41
2022-10-19T22:57:14.813Z,100716.53
2022-10-19T22:59:42.959Z,100711.78
2022-10-19T23:02:11.347Z,100705.41
2022-10-19T23:04:39.561Z,100716.25
2022-10-19T23:07:07.731Z,100712.22
2022-10-19T23:09:36.699Z,100727.44
2022-10-19T23:12:05.719Z,100734.97
2022-10-19T23:14:33.793Z,100732.53
2022-10-19T23:17:02.133Z,100731.09
2022-10-19T23:19:30.498Z,100733.78
2022-10-19T23:21:58.514Z,100729.75
2022-10-19T23:24:26.835Z,100728.72
2022-10-19T23:26:55.318Z,100735.94
2022-10-19T23:29:23.776Z,100736.69
2022-10-19T23:31:52.113Z,100729.31
2022-10-19T23:34:20.963Z,100741.13
2022-10-19T23:36:49.203Z,100740.75
2022-10-19T23:39:18.235Z,100733.84
2022-10-19T23:41:46.538Z,100733.16
2022-10-19T23:44:14.803Z,100737.03
2022-10-19T23:46:43.153Z,100732.34
2022-10-19T23:49:11.336Z,100736.03
2022-10-19T23:51:39.721Z,100745.78
2022-10-19T23:54:08.257Z,100739.38
2022-10-19T23:56:36.404Z,100751.12
2022-10-19T23:59:07.735Z,100756.50
